createdAt,value
2023-05-15T00:00:25.699Z,96990.94
2023-05-15T00:02:34.010Z,96989.47
2023-05-15T00:04:42.311Z,96993.44
2023-05-15T00:06:50.659Z,96991.72
2023-05-15T00:09:01.470Z,96996.63
2023-05-15T00:11:13.956Z,96988.56
2023-05-15T00:13:21.821Z,96990.66
2023-05-15T00:15:29.824Z,96985.34
2023-05-15T00:17:37.774Z,97000.91
2023-05-15T00:19:47.419Z,96989.06
2023-05-15T00:21:55.702Z,96996.31
2023-05-15T00:24:06.706Z,96998.31
2023-05-15T00:26:15.989Z,96995.16
2023-05-15T00:28:24.202Z,96997.22
2023-05-15T00:30:33.349Z,96999.22
2023-05-15T00:32:41.911Z,96999.16
2023-05-15T00:34:50.043Z,97002.66
2023-05-15T00:36:58.190Z,97003.06
2023-05-15T00:39:09.231Z,96999.69
2023-05-15T00:41:18.986Z,97002.72
2023-05-15T00:43:31.978Z,97017.16
2023-05-15T00:45:46.447Z,97015.66
2023-05-15T00:47:54.953Z,97022.97
2023-05-15T00:50:03.612Z,97018.63
2023-05-15T00:52:11.865Z,97039.88
2023-05-15T00:54:22.544Z,97034.88
2023-05-15T00:56:33.704Z,97037.81
2023-05-15T00:58:45.035Z,97033.13
2023-05-15T01:00:54.658Z,97029.41
2023-05-15T01:03:02.921Z,97032.69
2023-05-15T01:05:14.226Z,97030.84
2023-05-15T01:07:24.660Z,97037.34
2023-05-15T01:09:37.022Z,97036.56
2023-05-15T01:11:46.078Z,97041.50
2023-05-15T01:13:54.434Z,97049.06
2023-05-15T01:16:05.482Z,97053.63
2023-05-15T01:18:16.038Z,97051.16
2023-05-15T01:20:25.645Z,97052.88
2023-05-15T01:22:48.001Z,97062.63
2023-05-15T01:25:30.826Z,97058.91
2023-05-15T01:27:46.739Z,97053.44
2023-05-15T01:30:02.581Z,97045.53
2023-05-15T01:32:26.485Z,97066.16
2023-05-15T01:34:41.178Z,97063.50
2023-05-15T01:36:53.851Z,97065.25
2023-05-15T01:39:06.158Z,97060.16
2023-05-15T01:41:19.254Z,97055.34
2023-05-15T01:43:32.578Z,97049.66
2023-05-15T01:45:44.204Z,97049.78
2023-05-15T01:47:53.211Z,97058.84
2023-05-15T01:50:05.811Z,97063.53
2023-05-15T01:52:19.439Z,97056.88
2023-05-15T01:54:28.184Z,97056.38
2023-05-15T01:56:36.820Z,97050.59
2023-05-15T01:58:48.233Z,97047.22
2023-05-15T02:00:56.972Z,97039.97
2023-05-15T02:03:06.706Z,97043.94
2023-05-15T02:05:15.665Z,97046.81
2023-05-15T02:07:24.570Z,97051.72
2023-05-15T02:09:34.008Z,97047.03
2023-05-15T02:11:43.842Z,97048.19
2023-05-15T02:13:56.223Z,97050.50
2023-05-15T02:16:06.974Z,97056.03
2023-05-15T02:18:15.035Z,97062.53
2023-05-15T02:20:23.297Z,97056.59
2023-05-15T02:22:31.882Z,97061.13
2023-05-15T02:24:41.654Z,97055.69
2023-05-15T02:27:00.211Z,97062.81
2023-05-15T02:29:23.899Z,97052.84
2023-05-15T02:31:38.301Z,97050.00
2023-05-15T02:33:56.374Z,97060.94
2023-05-15T02:36:09.479Z,97053.81
2023-05-15T02:38:20.563Z,97054.47
2023-05-15T02:40:32.760Z,97067.94
2023-05-15T02:42:42.005Z,97068.47
2023-05-15T02:44:52.965Z,97068.25
2023-05-15T02:47:01.812Z,97068.50
2023-05-15T02:49:10.723Z,97075.00
2023-05-15T02:51:21.553Z,97076.03
2023-05-15T02:53:29.772Z,97078.97
2023-05-15T02:55:38.188Z,97080.59
2023-05-15T02:57:46.326Z,97075.69
2023-05-15T02:59:59.427Z,97081.75
2023-05-15T03:02:08.125Z,97073.31
2023-05-15T03:04:16.923Z,97073.66
2023-05-15T03:06:26.197Z,97079.47
2023-05-15T03:08:34.438Z,97073.78
2023-05-15T03:10:42.756Z,97068.16
2023-05-15T03:12:52.062Z,97069.25
2023-05-15T03:15:04.734Z,97071.16
2023-05-15T03:17:12.984Z,97067.78
2023-05-15T03:19:21.287Z,97063.16
2023-05-15T03:21:29.485Z,97061.13
2023-05-15T03:23:41.439Z,97050.00
2023-05-15T03:25:49.682Z,97055.69
2023-05-15T03:27:57.665Z,97047.63
2023-05-15T03:30:09.757Z,97052.09
2023-05-15T03:32:20.738Z,97054.72
2023-05-15T03:34:29.986Z,97052.00
2023-05-15T03:36:38.030Z,97060.19
2023-05-15T03:38:49.325Z,97056.81
2023-05-15T03:40:57.420Z,97055.34
2023-05-15T03:43:06.261Z,97050.16
2023-05-15T03:45:17.080Z,97043.88
2023-05-15T03:47:25.250Z,97042.56
2023-05-15T03:49:34.261Z,97041.56
2023-05-15T03:51:42.379Z,97047.22
2023-05-15T03:53:50.864Z,97048.50
2023-05-15T03:55:59.792Z,97051.56
2023-05-15T03:58:08.131Z,97051.00
2023-05-15T04:00:19.814Z,97058.16
2023-05-15T04:02:29.809Z,97055.16
2023-05-15T04:04:38.978Z,97067.75
2023-05-15T04:06:47.068Z,97072.50
2023-05-15T04:08:57.555Z,97071.25
2023-05-15T04:11:06.238Z,97077.84
2023-05-15T04:13:14.377Z,97082.03
2023-05-15T04:15:28.881Z,97084.59
2023-05-15T04:17:37.737Z,97095.03
2023-05-15T04:19:48.104Z,97098.44
2023-05-15T04:21:56.005Z,97104.78
2023-05-15T04:24:05.293Z,97120.38
2023-05-15T04:26:13.267Z,97131.13
2023-05-15T04:28:21.610Z,97128.22
2023-05-15T04:30:32.790Z,97132.72
2023-05-15T04:32:41.625Z,97134.81
2023-05-15T04:34:52.276Z,97132.47
2023-05-15T04:37:00.230Z,97138.34
2023-05-15T04:39:10.333Z,97145.94
2023-05-15T04:41:19.851Z,97148.63
2023-05-15T04:43:28.477Z,97154.91
2023-05-15T04:45:39.199Z,97175.44
2023-05-15T04:47:52.297Z,97182.56
2023-05-15T04:50:00.287Z,97195.38
2023-05-15T04:52:08.368Z,97206.72
2023-05-15T04:54:24.805Z,97222.06
2023-05-15T04:56:36.798Z,97237.50
2023-05-15T04:58:47.741Z,97244.22
2023-05-15T05:00:59.312Z,97264.34
2023-05-15T05:03:10.048Z,97235.13
2023-05-15T05:05:20.826Z,97219.59
2023-05-15T05:07:29.185Z,97200.06
2023-05-15T05:09:38.179Z,97199.53
2023-05-15T05:11:51.363Z,97206.31
2023-05-15T05:14:00.282Z,97172.34
2023-05-15T05:16:12.496Z,97176.22
2023-05-15T05:18:23.023Z,97184.31
2023-05-15T05:20:34.105Z,97191.00
2023-05-15T05:22:43.740Z,97170.00
2023-05-15T05:24:51.937Z,97165.59
2023-05-15T05:27:00.505Z,97175.56
2023-05-15T05:29:08.874Z,97197.78
2023-05-15T05:31:34.548Z,97243.63
2023-05-15T05:33:44.808Z,97255.06
2023-05-15T05:35:55.950Z,97262.47
2023-05-15T05:38:04.679Z,97264.81
2023-05-15T05:40:13.780Z,97276.53
2023-05-15T05:42:24.782Z,97272.50
2023-05-15T05:44:34.638Z,97280.19
2023-05-15T05:46:45.919Z,97269.59
2023-05-15T05:48:56.138Z,97279.56
2023-05-15T05:51:04.121Z,97266.50
2023-05-15T05:53:12.659Z,97248.72
2023-05-15T05:55:20.933Z,97239.94
2023-05-15T05:57:34.599Z,97238.38
2023-05-15T05:59:46.762Z,97242.69
2023-05-15T06:01:59.111Z,97237.88
2023-05-15T06:04:10.212Z,97249.78
2023-05-15T06:06:18.265Z,97249.25
2023-05-15T06:08:28.766Z,97240.56
2023-05-15T06:10:37.247Z,97227.84
2023-05-15T06:12:46.184Z,97245.13
2023-05-15T06:14:54.242Z,97249.28
2023-05-15T06:17:05.035Z,97268.44
2023-05-15T06:19:15.266Z,97282.66
2023-05-15T06:21:24.510Z,97293.72
2023-05-15T06:23:32.832Z,97290.66
2023-05-15T06:25:41.538Z,97295.72
2023-05-15T06:27:49.671Z,97298.06
2023-05-15T06:29:58.704Z,97289.88
2023-05-15T06:32:09.951Z,97264.72
2023-05-15T06:34:18.336Z,97279.56
2023-05-15T06:36:27.737Z,97290.66
2023-05-15T06:38:37.582Z,97275.81
2023-05-15T06:40:47.694Z,97251.91
2023-05-15T06:43:05.777Z,97249.00
2023-05-15T06:45:14.358Z,97268.22
2023-05-15T06:47:26.592Z,97268.06
2023-05-15T06:49:35.187Z,97271.97
2023-05-15T06:51:43.467Z,97264.34
2023-05-15T06:53:51.645Z,97267.19
2023-05-15T06:56:00.511Z,97269.38
2023-05-15T06:58:10.969Z,97265.34
2023-05-15T07:00:26.831Z,97269.69
2023-05-15T07:02:41.267Z,97276.75
2023-05-15T07:05:01.264Z,97263.03
2023-05-15T07:07:16.474Z,97266.56
2023-05-15T07:09:25.368Z,97261.66
2023-05-15T07:11:38.482Z,97267.81
2023-05-15T07:13:47.935Z,97266.03
2023-05-15T07:15:57.186Z,97273.06
2023-05-15T07:18:09.574Z,97266.53
2023-05-15T07:20:17.911Z,97258.38
2023-05-15T07:22:26.072Z,97256.28
2023-05-15T07:24:34.037Z,97259.59
2023-05-15T07:26:54.350Z,97258.88
2023-05-15T07:29:06.663Z,97228.59
2023-05-15T07:31:14.825Z,97214.66
2023-05-15T07:33:28.167Z,97221.06
2023-05-15T07:35:38.258Z,97216.06
2023-05-15T07:37:46.606Z,97198.28
2023-05-15T07:39:56.428Z,97212.22
2023-05-15T07:42:04.509Z,97202.28
2023-05-15T07:44:12.829Z,97205.16
2023-05-15T07:46:21.162Z,97206.31
2023-05-15T07:48:32.490Z,97202.88
2023-05-15T07:50:40.608Z,97206.38
2023-05-15T07:52:48.912Z,97213.47
2023-05-15T07:54:57.049Z,97219.38
2023-05-15T07:57:06.452Z,97206.09
2023-05-15T07:59:16.974Z,97195.06
2023-05-15T08:01:24.939Z,97190.44
2023-05-15T08:03:37.902Z,97190.94
2023-05-15T08:05:49.211Z,97191.06
2023-05-15T08:07:58.662Z,97185.88
2023-05-15T08:10:07.347Z,97187.28
2023-05-15T08:12:21.455Z,97185.06
2023-05-15T08:14:30.006Z,97185.84
2023-05-15T08:16:39.913Z,97192.97
2023-05-15T08:18:53.476Z,97184.50
2023-05-15T08:21:02.944Z,97192.44
2023-05-15T08:23:15.326Z,97178.91
2023-05-15T08:25:27.040Z,97173.44
2023-05-15T08:27:35.369Z,97177.63
2023-05-15T08:29:43.603Z,97169.97
2023-05-15T08:31:54.302Z,97168.50
2023-05-15T08:34:05.452Z,97156.66
2023-05-15T08:36:14.349Z,97167.34
2023-05-15T08:38:24.165Z,97163.19
2023-05-15T08:40:39.083Z,97153.88
2023-05-15T08:42:53.949Z,97157.84
2023-05-15T08:45:02.740Z,97159.88
2023-05-15T08:47:11.672Z,97165.94
2023-05-15T08:49:30.543Z,97171.91
2023-05-15T08:51:40.211Z,97161.72
2023-05-15T08:53:49.114Z,97149.00
2023-05-15T08:55:59.816Z,97153.38
2023-05-15T08:58:08.234Z,97148.28
2023-05-15T09:00:21.972Z,97155.91
2023-05-15T09:02:33.857Z,97158.69
2023-05-15T09:04:51.273Z,97155.41
2023-05-15T09:07:03.614Z,97156.66
2023-05-15T09:09:14.475Z,97156.22
2023-05-15T09:11:23.062Z,97156.22
2023-05-15T09:13:31.362Z,97148.56
2023-05-15T09:15:41.412Z,97165.91
2023-05-15T09:17:50.748Z,97158.78
2023-05-15T09:20:01.485Z,97156.53
2023-05-15T09:22:23.576Z,97167.19
2023-05-15T09:24:32.417Z,97164.91
2023-05-15T09:26:43.119Z,97159.94
2023-05-15T09:28:53.210Z,97166.94
2023-05-15T09:31:03.805Z,97175.66
2023-05-15T09:33:12.845Z,97173.59
2023-05-15T09:35:34.626Z,97169.31
2023-05-15T09:37:42.559Z,97159.56
2023-05-15T09:39:55.534Z,97158.81
2023-05-15T09:42:12.272Z,97152.56
2023-05-15T09:44:28.791Z,97153.59
2023-05-15T09:46:40.201Z,97132.75
2023-05-15T09:48:48.429Z,97140.41
2023-05-15T09:51:00.456Z,97139.75
2023-05-15T09:53:10.231Z,97131.75
2023-05-15T09:55:19.788Z,97124.31
2023-05-15T09:57:29.026Z,97115.78
2023-05-15T09:59:37.924Z,97121.25
2023-05-15T10:01:48.309Z,97111.03
2023-05-15T10:04:08.297Z,97115.50
2023-05-15T10:06:23.550Z,97113.41
2023-05-15T10:08:32.116Z,97122.31
2023-05-15T10:10:41.523Z,97124.28
2023-05-15T10:12:53.989Z,97118.38
2023-05-15T10:15:03.788Z,97130.97
2023-05-15T10:17:13.011Z,97138.25
2023-05-15T10:19:25.623Z,97133.91
2023-05-15T10:21:38.664Z,97122.03
2023-05-15T10:23:48.411Z,97126.56
2023-05-15T10:26:03.420Z,97117.97
2023-05-15T10:28:13.262Z,97116.16
2023-05-15T10:30:22.779Z,97106.28
2023-05-15T10:32:31.165Z,97093.41
2023-05-15T10:34:39.678Z,97098.47
2023-05-15T10:36:53.551Z,97095.56
2023-05-15T10:39:03.987Z,97103.34
2023-05-15T10:41:17.111Z,97094.88
2023-05-15T10:43:29.394Z,97094.72
2023-05-15T10:45:39.047Z,97084.50
2023-05-15T10:47:48.680Z,97079.28
2023-05-15T10:49:56.894Z,97076.59
2023-05-15T10:52:08.174Z,97081.25
2023-05-15T10:54:18.018Z,97082.66
2023-05-15T10:56:30.167Z,97079.66
2023-05-15T10:58:38.172Z,97076.88
2023-05-15T11:00:52.328Z,97087.66
2023-05-15T11:03:01.382Z,97076.97
2023-05-15T11:05:12.470Z,97081.41
2023-05-15T11:07:27.403Z,97064.44
2023-05-15T11:09:43.224Z,97086.13
2023-05-15T11:11:58.578Z,97075.38
2023-05-15T11:14:16.061Z,97065.59
2023-05-15T11:16:54.144Z,97064.28
2023-05-15T11:19:04.429Z,97073.91
2023-05-15T11:21:13.344Z,97070.06
2023-05-15T11:23:24.902Z,97062.88
2023-05-15T11:25:34.411Z,97064.97
2023-05-15T11:27:44.264Z,97063.72
2023-05-15T11:30:13.645Z,97051.31
2023-05-15T11:32:53.566Z,97045.34
2023-05-15T11:35:04.371Z,97052.16
2023-05-15T11:37:20.252Z,97039.03
2023-05-15T11:39:31.934Z,97035.03
2023-05-15T11:41:40.533Z,97029.03
2023-05-15T11:43:49.177Z,97035.53
2023-05-15T11:45:58.992Z,97033.25
2023-05-15T11:48:09.324Z,97034.31
2023-05-15T11:50:19.302Z,97035.81
2023-05-15T11:52:27.763Z,97044.06
2023-05-15T11:54:39.588Z,97031.16
2023-05-15T11:56:50.457Z,97037.63
2023-05-15T11:59:00.222Z,97050.44
2023-05-15T12:01:10.709Z,97033.44
2023-05-15T12:03:20.780Z,97031.16
2023-05-15T12:05:29.028Z,97039.31
2023-05-15T12:07:41.021Z,97026.91
2023-05-15T12:09:55.975Z,97038.09
2023-05-15T12:12:05.610Z,97029.31
2023-05-15T12:14:16.879Z,97034.56
2023-05-15T12:16:28.163Z,97037.34
2023-05-15T12:18:36.724Z,97025.97
2023-05-15T12:20:47.055Z,97038.09
2023-05-15T12:22:54.945Z,97025.50
2023-05-15T12:25:05.982Z,97022.19
2023-05-15T12:27:14.658Z,97018.06
2023-05-15T12:29:23.130Z,97023.91
2023-05-15T12:31:33.692Z,97025.94
2023-05-15T12:33:42.455Z,97029.53
2023-05-15T12:36:00.895Z,97018.47
2023-05-15T12:38:09.684Z,97029.78
2023-05-15T12:40:24.625Z,97023.91
2023-05-15T12:42:33.050Z,97042.69
2023-05-15T12:44:41.053Z,97030.25
2023-05-15T12:46:49.837Z,97037.47
2023-05-15T12:48:57.769Z,97031.16
2023-05-15T12:51:11.554Z,97026.19
2023-05-15T12:53:21.074Z,97026.56
2023-05-15T12:55:37.655Z,97025.88
2023-05-15T12:57:48.136Z,97020.50
2023-05-15T12:59:56.178Z,97015.44
2023-05-15T13:02:05.373Z,97021.81
2023-05-15T13:04:14.015Z,97028.22
2023-05-15T13:06:23.612Z,97033.81
2023-05-15T13:08:34.870Z,97034.56
2023-05-15T13:10:45.984Z,97029.16
2023-05-15T13:12:55.569Z,97020.28
2023-05-15T13:15:03.981Z,97023.22
2023-05-15T13:17:12.158Z,97020.53
2023-05-15T13:19:20.136Z,97021.50
2023-05-15T13:21:28.733Z,97017.44
2023-05-15T13:23:36.933Z,97016.94
2023-05-15T13:25:48.974Z,97006.91
2023-05-15T13:28:00.996Z,97006.00
2023-05-15T13:30:11.769Z,97010.81
2023-05-15T13:32:19.957Z,97014.03
2023-05-15T13:34:28.188Z,97010.94
2023-05-15T13:36:37.947Z,97007.84
2023-05-15T13:38:48.480Z,97006.41
2023-05-15T13:40:59.584Z,97006.00
2023-05-15T13:43:08.279Z,97010.91
2023-05-15T13:45:18.206Z,97006.84
2023-05-15T13:47:27.134Z,97003.50
2023-05-15T13:49:35.131Z,96997.59
2023-05-15T13:51:43.218Z,97004.84
2023-05-15T13:53:51.358Z,97006.69
2023-05-15T13:56:03.613Z,97012.03
2023-05-15T13:58:14.724Z,97018.59
2023-05-15T14:00:23.893Z,97008.31
2023-05-15T14:02:32.323Z,97006.50
2023-05-15T14:04:40.967Z,96997.72
2023-05-15T14:07:00.240Z,97004.56
2023-05-15T14:09:08.472Z,97000.03
2023-05-15T14:11:19.079Z,97006.94
2023-05-15T14:13:38.800Z,97005.75
2023-05-15T14:15:47.034Z,97004.25
2023-05-15T14:17:55.171Z,97009.31
2023-05-15T14:20:03.439Z,97002.69
2023-05-15T14:22:11.530Z,97001.09
2023-05-15T14:24:19.547Z,97004.31
2023-05-15T14:26:27.645Z,97001.63
2023-05-15T14:28:38.333Z,97012.91
2023-05-15T14:30:49.383Z,97014.78
2023-05-15T14:32:57.719Z,97010.56
2023-05-15T14:35:06.113Z,97007.88
2023-05-15T14:37:14.080Z,97012.94
2023-05-15T14:39:22.301Z,97012.91
2023-05-15T14:41:31.065Z,97004.69
2023-05-15T14:43:41.500Z,97016.25
2023-05-15T14:45:49.497Z,97013.06
2023-05-15T14:47:59.591Z,97016.28
2023-05-15T14:50:08.328Z,97022.63
2023-05-15T14:52:16.245Z,97021.34
2023-05-15T14:54:24.284Z,97029.44
2023-05-15T14:56:32.536Z,97032.59
2023-05-15T14:58:42.983Z,97025.41
2023-05-15T15:00:50.918Z,97033.88
2023-05-15T15:02:59.714Z,97027.19
2023-05-15T15:05:11.615Z,97026.19
2023-05-15T15:07:19.603Z,97025.69
2023-05-15T15:09:29.114Z,97021.69
2023-05-15T15:11:37.461Z,97026.22
2023-05-15T15:13:48.120Z,97026.72
2023-05-15T15:15:57.069Z,97020.66
2023-05-15T15:18:05.101Z,97023.88
2023-05-15T15:20:15.315Z,97028.91
2023-05-15T15:22:23.216Z,97030.91
2023-05-15T15:24:32.264Z,97031.75
2023-05-15T15:26:40.254Z,97033.44
2023-05-15T15:28:51.076Z,97040.19
2023-05-15T15:30:59.072Z,97052.81
2023-05-15T15:33:07.269Z,97051.78
2023-05-15T15:35:19.968Z,97045.25
2023-05-15T15:37:32.773Z,97055.31
2023-05-15T15:39:41.140Z,97049.91
2023-05-15T15:41:50.699Z,97055.59
2023-05-15T15:44:01.642Z,97055.19
2023-05-15T15:46:09.799Z,97063.41
2023-05-15T15:48:17.758Z,97066.56
2023-05-15T15:50:26.140Z,97068.72
2023-05-15T15:52:34.762Z,97069.78
2023-05-15T15:54:47.239Z,97075.88
2023-05-15T15:56:55.454Z,97078.56
2023-05-15T15:59:06.117Z,97079.41
2023-05-15T16:01:14.212Z,97083.16
2023-05-15T16:03:22.565Z,97080.06
2023-05-15T16:05:30.520Z,97073.63
2023-05-15T16:07:39.519Z,97074.53
2023-05-15T16:09:51.407Z,97069.09
2023-05-15T16:12:08.706Z,97059.13
2023-05-15T16:14:19.530Z,97062.09
2023-05-15T16:16:27.430Z,97055.28
2023-05-15T16:18:35.449Z,97051.59
2023-05-15T16:20:43.999Z,97054.22
2023-05-15T16:22:52.731Z,97050.09
2023-05-15T16:25:00.813Z,97049.06
2023-05-15T16:27:08.964Z,97055.88
2023-05-15T16:29:19.500Z,97045.88
2023-05-15T16:31:27.683Z,97051.91
2023-05-15T16:33:36.152Z,97049.06
2023-05-15T16:35:44.366Z,97047.06
2023-05-15T16:37:52.401Z,97038.28
2023-05-15T16:40:00.479Z,97040.72
2023-05-15T16:42:09.648Z,97049.25
2023-05-15T16:44:20.349Z,97046.94
2023-05-15T16:46:28.419Z,97053.84
2023-05-15T16:48:37.098Z,97064.84
2023-05-15T16:50:45.477Z,97064.44
2023-05-15T16:52:53.620Z,97068.19
2023-05-15T16:55:01.923Z,97065.78
2023-05-15T16:57:09.932Z,97066.63
2023-05-15T16:59:20.777Z,97059.34
2023-05-15T17:01:28.994Z,97069.94
2023-05-15T17:03:37.119Z,97063.00
2023-05-15T17:05:45.419Z,97062.03
2023-05-15T17:07:53.470Z,97064.72
2023-05-15T17:10:01.496Z,97074.03
2023-05-15T17:12:10.429Z,97067.53
2023-05-15T17:14:21.427Z,97074.84
2023-05-15T17:16:29.649Z,97072.31
2023-05-15T17:18:40.050Z,97079.13
2023-05-15T17:20:48.096Z,97071.22
2023-05-15T17:22:56.378Z,97068.53
2023-05-15T17:25:04.577Z,97072.88
2023-05-15T17:27:12.638Z,97081.94
2023-05-15T17:29:23.262Z,97074.28
2023-05-15T17:31:33.455Z,97078.06
2023-05-15T17:33:41.592Z,97089.34
2023-05-15T17:35:49.808Z,97077.88
2023-05-15T17:37:58.003Z,97085.31
2023-05-15T17:40:07.240Z,97091.13
2023-05-15T17:42:15.524Z,97096.88
2023-05-15T17:44:29.980Z,97097.72
2023-05-15T17:46:38.200Z,97098.88
2023-05-15T17:48:46.325Z,97106.47
2023-05-15T17:50:54.540Z,97097.28
2023-05-15T17:53:02.944Z,97102.31
2023-05-15T17:55:12.010Z,97100.75
2023-05-15T17:57:20.149Z,97097.25
2023-05-15T17:59:31.292Z,97109.16
2023-05-15T18:01:39.406Z,97100.59
2023-05-15T18:03:47.548Z,97103.31
2023-05-15T18:05:55.796Z,97113.09
2023-05-15T18:08:03.964Z,97113.13
2023-05-15T18:10:13.012Z,97111.78
2023-05-15T18:12:21.006Z,97108.22
2023-05-15T18:14:32.117Z,97117.25
2023-05-15T18:16:40.302Z,97120.59
2023-05-15T18:18:49.628Z,97127.50
2023-05-15T18:20:57.624Z,97126.22
2023-05-15T18:23:05.577Z,97137.72
2023-05-15T18:25:13.709Z,97139.16
2023-05-15T18:27:21.820Z,97137.53
2023-05-15T18:29:32.729Z,97138.22
2023-05-15T18:31:40.941Z,97143.13
2023-05-15T18:33:49.213Z,97144.84
2023-05-15T18:35:57.362Z,97142.72
2023-05-15T18:38:05.568Z,97150.34
2023-05-15T18:40:14.733Z,97140.94
2023-05-15T18:42:22.678Z,97146.69
2023-05-15T18:44:35.004Z,97154.00
2023-05-15T18:46:43.139Z,97146.66
2023-05-15T18:48:51.321Z,97156.31
2023-05-15T18:50:59.344Z,97156.59
2023-05-15T18:53:07.435Z,97161.53
2023-05-15T18:55:15.842Z,97164.19
2023-05-15T18:57:23.747Z,97169.84
2023-05-15T18:59:35.117Z,97167.88
2023-05-15T19:01:43.815Z,97165.19
2023-05-15T19:03:52.270Z,97165.06
2023-05-15T19:06:00.350Z,97166.28
2023-05-15T19:08:08.489Z,97176.13
2023-05-15T19:10:16.551Z,97175.38
2023-05-15T19:12:24.909Z,97174.78
2023-05-15T19:14:35.859Z,97179.34
2023-05-15T19:16:44.148Z,97175.84
2023-05-15T19:18:52.079Z,97181.25
2023-05-15T19:21:01.057Z,97181.63
2023-05-15T19:23:09.145Z,97179.16
2023-05-15T19:25:17.127Z,97179.34
2023-05-15T19:27:25.195Z,97181.47
2023-05-15T19:29:36.016Z,97187.19
2023-05-15T19:31:45.894Z,97182.22
2023-05-15T19:33:53.981Z,97183.25
2023-05-15T19:36:02.198Z,97185.59
2023-05-15T19:38:10.731Z,97192.06
2023-05-15T19:40:19.227Z,97205.41
2023-05-15T19:42:27.439Z,97199.31
2023-05-15T19:44:38.064Z,97197.84
2023-05-15T19:46:46.947Z,97207.94
2023-05-15T19:48:55.255Z,97202.00
2023-05-15T19:51:03.729Z,97217.91
2023-05-15T19:53:12.419Z,97208.34
2023-05-15T19:55:20.856Z,97212.97
2023-05-15T19:57:29.030Z,97219.88
2023-05-15T19:59:39.803Z,97214.06
2023-05-15T20:01:48.052Z,97208.13
2023-05-15T20:03:56.706Z,97204.78
2023-05-15T20:06:04.867Z,97210.38
2023-05-15T20:08:14.283Z,97205.16
2023-05-15T20:10:22.550Z,97208.91
2023-05-15T20:12:30.577Z,97200.06
2023-05-15T20:14:42.192Z,97199.34
2023-05-15T20:16:53.699Z,97197.56
2023-05-15T20:19:01.802Z,97191.53
2023-05-15T20:21:10.142Z,97202.41
2023-05-15T20:23:18.255Z,97196.13
2023-05-15T20:25:26.456Z,97198.31
2023-05-15T20:27:35.730Z,97195.41
2023-05-15T20:29:46.865Z,97196.25
2023-05-15T20:31:55.766Z,97191.66
2023-05-15T20:34:06.098Z,97187.78
2023-05-15T20:36:14.674Z,97193.00
2023-05-15T20:38:25.449Z,97187.69
2023-05-15T20:40:33.841Z,97186.69
2023-05-15T20:42:42.343Z,97189.00
2023-05-15T20:44:54.259Z,97186.91
2023-05-15T20:47:03.748Z,97187.66
2023-05-15T20:49:11.795Z,97188.75
2023-05-15T20:51:19.763Z,97189.84
2023-05-15T20:53:28.809Z,97193.50
2023-05-15T20:55:36.920Z,97192.75
2023-05-15T20:57:46.298Z,97190.81
2023-05-15T20:59:56.783Z,97191.53
2023-05-15T21:02:04.990Z,97192.25
2023-05-15T21:04:13.100Z,97187.28
2023-05-15T21:06:21.302Z,97185.97
2023-05-15T21:08:29.449Z,97181.59
2023-05-15T21:10:37.540Z,97178.59
2023-05-15T21:12:45.631Z,97177.03
2023-05-15T21:14:56.517Z,97181.97
2023-05-15T21:17:04.530Z,97184.53
2023-05-15T21:19:12.526Z,97184.53
2023-05-15T21:21:20.505Z,97176.41
2023-05-15T21:23:28.737Z,97186.34
2023-05-15T21:25:36.822Z,97181.72
2023-05-15T21:27:45.042Z,97174.56
2023-05-15T21:29:56.217Z,97178.34
2023-05-15T21:32:06.834Z,97173.50
2023-05-15T21:34:15.150Z,97175.53
2023-05-15T21:36:23.818Z,97185.22
2023-05-15T21:38:32.960Z,97181.84
2023-05-15T21:40:41.165Z,97181.59
2023-05-15T21:42:49.187Z,97175.91
2023-05-15T21:44:57.236Z,97178.56
2023-05-15T21:47:08.181Z,97177.03
2023-05-15T21:49:16.268Z,97177.97
2023-05-15T21:51:24.197Z,97181.13
2023-05-15T21:53:32.259Z,97177.25
2023-05-15T21:55:40.176Z,97177.75
2023-05-15T21:57:48.422Z,97172.16
2023-05-15T21:59:56.387Z,97173.63
2023-05-15T22:02:04.453Z,97170.34
2023-05-15T22:04:15.321Z,97165.50
2023-05-15T22:06:23.403Z,97171.19
2023-05-15T22:08:31.760Z,97170.19
2023-05-15T22:10:40.118Z,97171.88
2023-05-15T22:12:48.578Z,97164.38
2023-05-15T22:14:58.816Z,97166.97
2023-05-15T22:17:08.070Z,97163.78
2023-05-15T22:19:32.289Z,97164.59
2023-05-15T22:21:41.368Z,97166.72
2023-05-15T22:23:51.841Z,97158.38
2023-05-15T22:25:59.872Z,97161.72
2023-05-15T22:28:08.243Z,97160.16
2023-05-15T22:30:16.443Z,97161.22
2023-05-15T22:32:24.961Z,97160.63
2023-05-15T22:34:36.071Z,97158.91
2023-05-15T22:36:45.125Z,97157.38
2023-05-15T22:38:53.304Z,97155.81
2023-05-15T22:41:01.260Z,97159.03
2023-05-15T22:43:09.163Z,97153.00
2023-05-15T22:45:18.314Z,97147.84
2023-05-15T22:47:28.308Z,97146.16
2023-05-15T22:49:39.145Z,97133.09
2023-05-15T22:51:47.104Z,97131.66
2023-05-15T22:53:55.321Z,97132.22
2023-05-15T22:56:03.568Z,97130.72
2023-05-15T22:58:11.935Z,97129.56
2023-05-15T23:00:21.491Z,97136.84
2023-05-15T23:02:29.487Z,97126.59
2023-05-15T23:04:40.380Z,97131.31
2023-05-15T23:06:49.466Z,97128.16
2023-05-15T23:08:57.519Z,97127.53
2023-05-15T23:11:07.760Z,97124.09
2023-05-15T23:13:15.868Z,97123.50
2023-05-15T23:15:24.970Z,97118.94
2023-05-15T23:17:33.336Z,97108.66
2023-05-15T23:19:44.017Z,97114.09
2023-05-15T23:21:52.137Z,97108.28
2023-05-15T23:24:00.982Z,97116.72
2023-05-15T23:26:09.186Z,97110.56
2023-05-15T23:28:17.157Z,97107.66
2023-05-15T23:30:25.709Z,97103.56
2023-05-15T23:32:34.899Z,97113.22
2023-05-15T23:34:45.554Z,97111.63
2023-05-15T23:36:56.427Z,97103.31
2023-05-15T23:39:07.619Z,97113.22
2023-05-15T23:41:18.258Z,97113.22
2023-05-15T23:43:26.474Z,97109.03
2023-05-15T23:45:35.402Z,97106.25
2023-05-15T23:47:46.737Z,97113.88
2023-05-15T23:49:57.345Z,97112.97
2023-05-15T23:52:05.267Z,97110.78
2023-05-15T23:54:13.633Z,97102.94
2023-05-15T23:56:23.372Z,97102.94
2023-05-15T23:58:31.513Z,97093.47
